Terminal Aerodrome Forecast
Issued by NWS

Home | Current Version | Previous Version | Text Only | Print | Product List | Glossary On
Versions: 1 2 3 4 5 6 7 8 9 10 11 12
000
FTUS44 KLZK 201740
TAFLIT
TAF
KLIT 201740Z 2018/2118 21006KT P6SM SCT045 SCT250
     FM210100 VRB03KT P6SM SCT250
     FM211500 22006KT P6SM SCT045 SCT250=

USA.gov is the U.S. government's official web portal to all federal, state and local government web resources and services.